Wellsburg, New York
Current Conditions -  °F | °C
As of 10:53 AM on Saturday 22 Nov 2014 (Local Time) from KELM Reporting Station
Broken Clouds Broken Clouds  
Wind Chill: 30°   Ceiling: 6000
Heat Index: 34°   Visibility: 10mi
Dew Point: 16°   Wind: 5mph
Humidity: 48%   Direction: NA
Pressure: 30.24"   Gusts: NA
Location:  42.02°N, 76.73°W
Report Text: KELM 221553Z VRB04KT 10SM BKN060 01/M09 A3024 RMK AO2 SLP253 T00111089
Loading
Personal Weather Stations






























Interactive Weather Map New forecast layout! Learn more

10-Day Weather Forecast

Advertisements
Track Severe Weather on mobile